Time;durP1;ratioP1;P1;durP2;ratioP2;P2;SDS_P1;SDS_P2;PMS_P1;PMS_P2;Temp;Humidity;BMP_temperature;BMP_pressure;BME280_temperature;BME280_humidity;BME280_pressure;Samples;Min_cycle;Max_cycle;Signal;HPM_P1;HPM_P2
2022/05/17 04:02:26;;;;;;;6.73;5.50;;;13.80;99.90;;;;;;5095304;23;20513;-75
2022/05/17 04:04:53;;;;;;;8.27;5.90;;;13.80;99.90;;;;;;4969406;28;20475;-76
2022/05/17 04:07:20;;;;;;;8.60;5.23;;;13.80;99.90;;;;;;4969617;28;20902;-76
2022/05/17 04:09:47;;;;;;;7.90;5.40;;;13.70;99.90;;;;;;4969414;28;20835;-76
2022/05/17 04:12:15;;;;;;;7.80;5.77;;;13.70;99.90;;;;;;4969459;28;20779;-75
2022/05/17 04:14:42;;;;;;;8.17;5.87;;;13.70;99.90;;;;;;4968919;28;20469;-76
2022/05/17 04:17:10;;;;;;;7.40;5.53;;;13.70;99.90;;;;;;4969635;28;20464;-76
2022/05/17 04:19:39;;;;;;;7.20;5.30;;;13.70;99.90;;;;;;4968110;28;20460;-76
2022/05/17 04:22:08;;;;;;;11.03;6.20;;;13.70;99.90;;;;;;4969862;28;20503;-76
2022/05/17 04:24:35;;;;;;;8.50;5.67;;;13.80;99.90;;;;;;4969072;28;20523;-76
2022/05/17 04:27:03;;;;;;;8.50;6.20;;;13.70;99.90;;;;;;4969735;28;20471;-76
2022/05/17 04:29:30;;;;;;;9.10;7.13;;;13.70;99.90;;;;;;4968817;28;20460;-76
2022/05/17 04:31:56;;;;;;;7.00;6.00;;;13.70;99.90;;;;;;4969817;28;20494;-76
2022/05/17 04:34:23;;;;;;;9.20;6.53;;;13.60;99.90;;;;;;4969540;28;20464;-76
2022/05/17 04:36:51;;;;;;;6.67;5.97;;;13.60;99.90;;;;;;4969882;28;20850;-76
2022/05/17 04:39:19;;;;;;;7.57;6.77;;;13.60;99.90;;;;;;4969826;28;20467;-76
2022/05/17 04:41:45;;;;;;;9.37;6.53;;;13.60;99.90;;;;;;4969315;28;20511;-76
2022/05/17 04:44:12;;;;;;;11.93;6.80;;;13.60;99.90;;;;;;4968824;28;20460;-76
2022/05/17 04:46:39;;;;;;;8.93;6.10;;;13.60;99.90;;;;;;4968922;28;20467;-76
2022/05/17 04:49:07;;;;;;;10.00;6.20;;;13.60;99.90;;;;;;4968966;28;20855;-76
2022/05/17 04:51:35;;;;;;;12.43;7.00;;;13.60;99.90;;;;;;4969314;28;20879;-76
2022/05/17 04:54:04;;;;;;;8.50;6.60;;;13.60;99.90;;;;;;4969007;28;20551;-76
2022/05/17 04:56:31;;;;;;;8.40;6.27;;;13.60;99.90;;;;;;4968938;28;20468;-75
2022/05/17 04:58:58;;;;;;;9.70;6.90;;;13.60;99.90;;;;;;4969985;28;20515;-76
2022/05/17 05:01:25;;;;;;;7.20;5.77;;;13.70;99.90;;;;;;4969308;28;20503;-68
2022/05/17 05:03:52;;;;;;;9.60;6.20;;;13.70;99.90;;;;;;4969016;28;20461;-67
2022/05/17 05:06:19;;;;;;;11.23;6.93;;;13.70;99.90;;;;;;4968413;28;20889;-68
2022/05/17 05:08:46;;;;;;;7.17;6.43;;;13.80;99.90;;;;;;4968961;28;20464;-68
2022/05/17 05:11:15;;;;;;;11.50;6.83;;;13.70;99.90;;;;;;4968895;28;20896;-68
2022/05/17 05:13:42;;;;;;;9.70;7.00;;;13.80;99.90;;;;;;4969126;28;20500;-68
2022/05/17 05:16:12;;;;;;;10.03;8.10;;;13.80;99.90;;;;;;4968596;28;20520;-68
2022/05/17 05:18:39;;;;;;;9.50;6.60;;;13.80;99.90;;;;;;4969025;28;20488;-68
2022/05/17 05:21:09;;;;;;;9.67;6.83;;;13.80;99.90;;;;;;4968700;28;20500;-67
2022/05/17 05:23:36;;;;;;;9.80;7.17;;;13.90;99.90;;;;;;4968672;28;20472;-67
2022/05/17 05:26:03;;;;;;;9.60;7.40;;;13.90;99.90;;;;;;4968720;28;20847;-75
2022/05/17 05:28:32;;;;;;;10.80;8.43;;;13.90;99.90;;;;;;4969480;28;20471;-75
2022/05/17 05:31:01;;;;;;;14.70;7.73;;;13.90;99.90;;;;;;4968748;28;20508;-74
2022/05/17 05:33:29;;;;;;;10.00;6.43;;;14.00;99.90;;;;;;4969216;28;20459;-75
2022/05/17 05:35:56;;;;;;;14.03;7.10;;;14.00;99.90;;;;;;4967733;28;20468;-75
2022/05/17 05:38:23;;;;;;;9.43;6.20;;;14.10;99.90;;;;;;4967992;28;20555;-74
2022/05/17 05:40:49;;;;;;;8.57;6.47;;;14.10;99.90;;;;;;4968172;28;20957;-75
2022/05/17 05:43:16;;;;;;;7.90;6.10;;;14.20;99.90;;;;;;4966451;28;20977;-75
2022/05/17 05:45:44;;;;;;;9.20;7.30;;;14.20;99.90;;;;;;4967277;28;20476;-75
2022/05/17 05:48:11;;;;;;;15.30;7.70;;;14.20;99.90;;;;;;4967929;28;20488;-75
2022/05/17 05:50:39;;;;;;;15.10;7.07;;;14.20;99.90;;;;;;4967405;28;20479;-75
2022/05/17 05:53:08;;;;;;;9.13;6.40;;;14.30;99.90;;;;;;4967873;28;20467;-75
2022/05/17 05:55:36;;;;;;;12.07;7.43;;;14.40;99.90;;;;;;4967091;28;20460;-75
2022/05/17 05:58:04;;;;;;;10.60;7.13;;;14.40;99.90;;;;;;4967582;28;20466;-76
2022/05/17 06:00:31;;;;;;;8.80;6.73;;;14.40;99.90;;;;;;4967564;28;20468;-75
2022/05/17 06:02:59;;;;;;;10.47;6.40;;;14.40;99.90;;;;;;4972087;28;20552;-72
2022/05/17 06:05:27;;;;;;;15.50;6.60;;;14.50;99.90;;;;;;4971793;28;20460;-71
2022/05/17 06:07:54;;;;;;;10.43;6.70;;;14.60;99.90;;;;;;4971564;28;21172;-71
2022/05/17 06:10:22;;;;;;;10.20;7.70;;;14.60;99.90;;;;;;4970858;28;21226;-71
2022/05/17 06:12:50;;;;;;;13.00;8.40;;;14.70;99.90;;;;;;4971571;28;20466;-71
2022/05/17 06:15:17;;;;;;;8.40;6.63;;;14.80;99.90;;;;;;4970701;28;20969;-76
2022/05/17 06:17:44;;;;;;;8.83;7.40;;;14.80;99.90;;;;;;4967246;28;20467;-76
2022/05/17 06:20:14;;;;;;;12.77;8.17;;;14.90;99.90;;;;;;4969647;28;20962;-77
2022/05/17 06:22:41;;;;;;;9.60;7.10;;;14.90;99.90;;;;;;4970249;28;20574;-78
2022/05/17 06:25:09;;;;;;;13.83;7.00;;;15.10;99.90;;;;;;4969019;28;20492;-77
2022/05/17 06:27:36;;;;;;;13.00;7.80;;;15.10;99.90;;;;;;4970607;28;20540;-76
2022/05/17 06:30:04;;;;;;;11.93;8.10;;;15.20;99.90;;;;;;4970731;28;20461;-77
2022/05/17 06:32:30;;;;;;;10.13;6.43;;;15.20;99.90;;;;;;4969837;28;20544;-77
2022/05/17 06:34:57;;;;;;;9.37;7.33;;;15.30;99.90;;;;;;4970231;28;20456;-78
2022/05/17 06:37:26;;;;;;;8.57;7.13;;;15.50;99.90;;;;;;4971267;28;20602;-78
2022/05/17 06:39:53;;;;;;;12.23;7.23;;;15.50;99.90;;;;;;4970593;28;20472;-77
2022/05/17 06:42:19;;;;;;;12.27;7.87;;;15.60;99.90;;;;;;4969427;28;20611;-77
2022/05/17 06:44:46;;;;;;;9.37;7.50;;;15.70;99.90;;;;;;4967778;28;20465;-77
2022/05/17 06:47:13;;;;;;;12.13;6.87;;;15.70;99.90;;;;;;4969547;28;20932;-77
2022/05/17 06:49:41;;;;;;;8.37;6.60;;;15.70;99.90;;;;;;4970359;28;20464;-77
2022/05/17 06:52:09;;;;;;;9.03;6.73;;;15.80;99.90;;;;;;4967833;28;20524;-69
2022/05/17 06:54:37;;;;;;;7.73;6.90;;;15.90;99.90;;;;;;4966163;28;20468;-70
2022/05/17 06:57:06;;;;;;;9.30;7.80;;;15.90;99.90;;;;;;4967096;28;20555;-70
2022/05/17 06:59:34;;;;;;;10.07;6.50;;;16.00;99.90;;;;;;4967152;28;20468;-68
2022/05/17 07:02:05;;;;;;;9.67;7.00;;;16.10;99.90;;;;;;4967291;28;20532;-79
2022/05/17 07:04:33;;;;;;;14.03;7.30;;;16.20;99.90;;;;;;4972926;28;20556;-78
2022/05/17 07:07:01;;;;;;;7.90;7.10;;;16.30;99.90;;;;;;4974666;28;20605;-80
2022/05/17 07:09:29;;;;;;;11.60;7.37;;;16.40;99.90;;;;;;4975858;28;20551;-79
2022/05/17 07:14:42;;;;;;;10.87;7.30;;;16.50;99.90;;;;;;4974016;28;20463;-77
2022/05/17 07:17:12;;;;;;;12.87;8.27;;;16.60;99.90;;;;;;4969920;28;20491;-77
2022/05/17 07:19:39;;;;;;;12.17;7.20;;;16.70;99.90;;;;;;4971747;28;20500;-78
2022/05/17 07:22:07;;;;;;;13.63;7.17;;;16.70;99.90;;;;;;4972694;28;20540;-78
2022/05/17 07:24:34;;;;;;;7.93;6.93;;;16.80;99.90;;;;;;4973697;28;20464;-78
2022/05/17 07:27:03;;;;;;;10.23;7.27;;;17.00;99.90;;;;;;4974358;28;21470;-78
2022/05/17 07:29:31;;;;;;;9.77;7.07;;;17.10;99.90;;;;;;4972791;28;20722;-78
2022/05/17 07:31:58;;;;;;;11.07;6.30;;;17.20;99.90;;;;;;4974742;28;20532;-78
2022/05/17 07:34:25;;;;;;;11.47;7.03;;;17.30;99.90;;;;;;4974423;28;20787;-78
2022/05/17 07:36:52;;;;;;;9.83;7.13;;;17.30;99.90;;;;;;4975287;28;20467;-78
2022/05/17 07:39:19;;;;;;;9.10;7.67;;;17.50;99.90;;;;;;4974222;28;20499;-78
2022/05/17 07:41:47;;;;;;;8.90;6.60;;;17.60;99.90;;;;;;4972574;28;20496;-78
2022/05/17 07:44:15;;;;;;;10.93;6.90;;;17.70;99.90;;;;;;4973264;28;20869;-78
2022/05/17 07:46:42;;;;;;;9.17;7.47;;;17.90;99.90;;;;;;4974159;28;20945;-78
2022/05/17 07:49:10;;;;;;;12.57;7.17;;;18.00;99.90;;;;;;4971689;28;20460;-78
2022/05/17 07:51:37;;;;;;;9.83;7.07;;;18.10;99.90;;;;;;4972749;28;20911;-78
2022/05/17 07:54:04;;;;;;;7.83;6.80;;;18.20;99.90;;;;;;4973634;28;20833;-78
2022/05/17 07:56:31;;;;;;;11.90;6.50;;;18.30;99.90;;;;;;4974424;28;20539;-78
2022/05/17 07:58:58;;;;;;;9.40;6.20;;;18.30;99.90;;;;;;4973786;28;20582;-78
2022/05/17 08:01:26;;;;;;;9.63;5.33;;;18.50;99.90;;;;;;4973389;28;20500;-78
2022/05/17 08:03:53;;;;;;;8.73;5.27;;;18.60;99.90;;;;;;4972747;28;20476;-78
2022/05/17 08:06:23;;;;;;;9.20;6.40;;;18.70;99.90;;;;;;4972126;28;21007;-78
2022/05/17 08:08:50;;;;;;;9.90;5.90;;;18.80;99.90;;;;;;4974393;28;20498;-78
2022/05/17 08:11:17;;;;;;;9.53;5.30;;;18.90;99.90;;;;;;4973658;28;20480;-78
2022/05/17 08:13:44;;;;;;;6.37;4.90;;;19.10;99.90;;;;;;4973941;28;20457;-78
2022/05/17 08:16:11;;;;;;;8.93;5.93;;;19.30;99.90;;;;;;4974589;28;20499;-79
2022/05/17 08:18:39;;;;;;;8.57;5.00;;;19.40;99.90;;;;;;4975326;28;20488;-78
2022/05/17 08:21:07;;;;;;;11.43;5.00;;;19.70;99.90;;;;;;4974621;28;21016;-78
2022/05/17 08:23:34;;;;;;;11.83;3.90;;;19.80;99.90;;;;;;4978315;28;20531;-78
2022/05/17 08:28:48;;;;;;;8.43;4.87;;;20.40;99.90;;;;;;4954205;28;20440;-78
2022/05/17 08:31:17;;;;;;;6.97;4.07;;;21.10;99.90;;;;;;4978926;28;21185;-79
2022/05/17 08:33:44;;;;;;;8.50;4.63;;;21.50;99.90;;;;;;4978005;28;20456;-78
2022/05/17 08:36:12;;;;;;;10.90;4.80;;;21.60;99.90;;;;;;4977133;28;20456;-78
2022/05/17 08:38:41;;;;;;;7.80;5.00;;;21.60;99.90;;;;;;4976860;28;20453;-79
2022/05/17 08:41:18;;;;;;;8.93;4.57;;;21.40;99.90;;;;;;4978092;28;20479;-79
2022/05/17 08:43:53;;;;;;;6.87;4.17;;;21.40;99.90;;;;;;4977749;28;20535;-79
2022/05/17 08:46:26;;;;;;;6.83;4.20;;;21.60;99.90;;;;;;4976807;28;20467;-79
2022/05/17 08:49:08;;;;;;;7.83;4.37;;;21.60;99.90;;;;;;4978258;28;20461;-79
2022/05/17 08:51:41;;;;;;;6.20;4.43;;;21.50;99.90;;;;;;4978260;28;20536;-79
2022/05/17 08:54:11;;;;;;;6.60;4.37;;;22.00;99.90;;;;;;4977271;28;20487;-79
2022/05/17 08:56:42;;;;;;;8.90;3.50;;;22.10;99.90;;;;;;4978061;28;20547;-79
2022/05/17 08:59:15;;;;;;;4.00;3.33;;;22.10;99.90;;;;;;4976972;28;20946;-78
2022/05/17 09:01:46;;;;;;;5.57;3.57;;;22.00;99.90;;;;;;4974551;28;20503;-78
2022/05/17 09:04:43;;;;;;;6.37;3.60;;;21.90;99.90;;;;;;4972285;28;20463;-78
2022/05/17 09:07:19;;;;;;;9.47;3.67;;;21.90;99.90;;;;;;4963465;28;20523;-78
2022/05/17 09:09:57;;;;;;;7.50;2.80;;;22.00;99.90;;;;;;4973604;28;20460;-78
2022/05/17 09:12:30;;;;;;;7.67;3.10;;;22.00;99.90;;;;;;4972022;28;20480;-69
2022/05/17 09:15:01;;;;;;;6.60;3.33;;;22.10;99.90;;;;;;4968085;28;20453;-68
2022/05/17 09:17:28;;;;;;;6.73;3.27;;;22.10;99.90;;;;;;4969077;28;20460;-67
2022/05/17 09:19:56;;;;;;;7.97;3.40;;;22.20;99.90;;;;;;4968996;28;20464;-70
2022/05/17 09:22:24;;;;;;;5.77;3.03;;;22.20;99.90;;;;;;4968840;28;20504;-69
2022/05/17 09:24:57;;;;;;;5.80;2.93;;;22.40;99.90;;;;;;4967786;28;20470;-68
2022/05/17 09:27:28;;;;;;;5.60;3.60;;;22.50;99.90;;;;;;4968859;28;20455;-69
2022/05/17 09:30:04;;;;;;;13.50;3.50;;;22.60;99.90;;;;;;4969418;28;20504;-70
2022/05/17 09:32:33;;;;;;;7.30;3.77;;;22.70;99.90;;;;;;4968460;28;20508;-67
2022/05/17 09:35:08;;;;;;;5.50;3.47;;;22.80;99.90;;;;;;4967359;28;20456;-69
2022/05/17 09:37:38;;;;;;;6.80;3.90;;;22.90;99.90;;;;;;4968273;28;20579;-69
2022/05/17 09:40:09;;;;;;;6.70;3.33;;;23.30;99.90;;;;;;4968031;28;20952;-65
2022/05/17 09:42:43;;;;;;;12.53;4.60;;;23.30;99.90;;;;;;4971497;28;20504;-79
2022/05/17 09:45:15;;;;;;;8.30;3.97;;;23.20;99.90;;;;;;4974503;28;20464;-79
2022/05/17 09:47:45;;;;;;;4.97;2.93;;;23.20;99.90;;;;;;4974914;28;20475;-79
2022/05/17 09:53:04;;;;;;;4.37;3.40;;;23.50;99.90;;;;;;4974800;28;20934;-79
2022/05/17 09:55:34;;;;;;;9.13;3.50;;;23.80;99.90;;;;;;4974172;28;20552;-79
2022/05/17 09:58:04;;;;;;;6.13;3.70;;;24.00;99.90;;;;;;4974002;28;20452;-79
2022/05/17 10:00:35;;;;;;;6.33;2.93;;;24.00;99.90;;;;;;4974786;28;20551;-79
2022/05/17 10:03:05;;;;;;;7.93;3.80;;;24.00;99.90;;;;;;4974405;28;20484;-80
2022/05/17 10:05:47;;;;;;;5.90;2.60;;;24.00;99.90;;;;;;4972374;28;20488;-80
2022/05/17 10:08:39;;;;;;;6.57;3.00;;;23.90;99.90;;;;;;4973838;28;20547;-80
2022/05/17 10:11:20;;;;;;;8.60;2.97;;;23.90;99.90;;;;;;4972568;28;20476;-80
2022/05/17 10:14:10;;;;;;;3.83;3.00;;;23.90;99.90;;;;;;4973402;28;20491;-79
2022/05/17 10:16:46;;;;;;;4.13;2.70;;;23.70;99.90;;;;;;4972841;28;20468;-79
2022/05/17 10:19:21;;;;;;;8.50;3.13;;;24.10;99.90;;;;;;4972059;28;20814;-79
2022/05/17 10:21:54;;;;;;;7.17;3.07;;;24.10;99.90;;;;;;4973021;28;20483;-79
2022/05/17 10:24:29;;;;;;;9.00;2.93;;;24.30;99.90;;;;;;4971450;28;20490;-79
2022/05/17 10:27:02;;;;;;;7.60;3.30;;;24.40;99.90;;;;;;4972993;28;20464;-79
2022/05/17 10:29:36;;;;;;;4.30;2.50;;;24.40;99.90;;;;;;4971737;28;20909;-79
2022/05/17 10:32:09;;;;;;;5.67;2.57;;;24.50;99.90;;;;;;4971895;28;20580;-79
2022/05/17 10:34:43;;;;;;;5.60;2.97;;;24.50;99.90;;;;;;4968829;28;21021;-79
2022/05/17 10:37:17;;;;;;;3.37;2.50;;;24.70;99.90;;;;;;4970904;28;20460;-78
2022/05/17 10:39:52;;;;;;;6.67;2.67;;;24.70;99.90;;;;;;4971841;28;21006;-78
2022/05/17 10:42:20;;;;;;;5.50;2.43;;;24.80;99.90;;;;;;4970434;28;20590;-78
2022/05/17 10:44:50;;;;;;;5.30;2.60;;;24.80;99.90;;;;;;4970547;28;20551;-79
2022/05/17 10:47:28;;;;;;;6.43;2.70;;;24.90;99.90;;;;;;4973455;28;21018;-78
2022/05/17 10:50:09;;;;;;;7.23;2.10;;;25.00;99.90;;;;;;4972619;28;20468;-79
2022/05/17 10:52:48;;;;;;;10.23;2.93;;;25.10;99.90;;;;;;4971884;28;20572;-79
2022/05/17 10:55:21;;;;;;;5.60;2.50;;;25.20;99.90;;;;;;4969513;28;20444;-79
2022/05/17 10:57:56;;;;;;;3.37;2.17;;;25.20;99.90;;;;;;4970026;28;20468;-79
2022/05/17 11:00:31;;;;;;;5.20;2.43;;;25.00;99.90;;;;;;4968847;28;21113;-79
2022/05/17 11:03:18;;;;;;;5.33;2.20;;;25.10;99.90;;;;;;4970286;28;20516;-79
2022/05/17 11:05:57;;;;;;;3.00;2.10;;;25.30;99.90;;;;;;4970233;28;20907;-79
2022/05/17 11:08:34;;;;;;;5.57;2.20;;;25.70;99.90;;;;;;4971456;28;20457;-78
2022/05/17 11:11:18;;;;;;;4.50;2.13;;;25.90;99.90;;;;;;4971131;28;20488;-77
2022/05/17 11:13:50;;;;;;;2.57;1.70;;;25.90;99.90;;;;;;4967413;28;21439;-73
2022/05/17 11:16:23;;;;;;;3.13;2.03;;;26.10;99.90;;;;;;4966529;28;20459;-73
2022/05/17 11:18:53;;;;;;;4.47;2.20;;;26.00;99.90;;;;;;4967531;28;20468;-74
2022/05/17 11:21:24;;;;;;;5.00;2.37;;;25.90;99.90;;;;;;4967359;28;20575;-73
2022/05/17 11:23:55;;;;;;;4.90;2.57;;;25.70;99.90;;;;;;4967095;28;20506;-70
2022/05/17 11:26:53;;;;;;;3.03;2.23;;;25.70;99.90;;;;;;4970871;28;20496;-79
2022/05/17 11:29:50;;;;;;;4.17;2.03;;;26.00;99.90;;;;;;4974523;28;20466;-79
2022/05/17 11:32:24;;;;;;;4.43;2.70;;;26.00;99.90;;;;;;4968693;28;20481;-79
2022/05/17 11:34:54;;;;;;;6.03;2.20;;;25.80;99.90;;;;;;4973152;28;20470;-79
2022/05/17 11:37:50;;;;;;;4.83;2.23;;;25.70;99.90;;;;;;4974335;28;20491;-79
2022/05/17 11:40:53;;;;;;;6.17;1.97;;;25.80;99.90;;;;;;4974181;28;20465;-79
2022/05/17 11:43:43;;;;;;;5.67;1.97;;;25.80;99.90;;;;;;4975008;28;20916;-79
2022/05/17 11:46:54;;;;;;;4.83;1.73;;;26.10;99.90;;;;;;4973948;28;20463;-79
2022/05/17 11:49:47;;;;;;;3.50;2.10;;;26.20;99.90;;;;;;4979694;28;20457;-78
2022/05/17 11:52:31;;;;;;;2.97;2.20;;;26.10;99.90;;;;;;4984692;28;20656;-80
2022/05/17 11:55:02;;;;;;;4.97;2.07;;;26.10;99.90;;;;;;4978384;28;20555;-79
2022/05/17 11:58:09;;;;;;;6.10;2.30;;;26.10;99.90;;;;;;4969520;28;20471;-69
2022/05/17 12:00:45;;;;;;;3.50;2.43;;;26.10;99.90;;;;;;4971245;28;20488;-70
2022/05/17 12:03:54;;;;;;;3.07;1.63;;;26.00;99.90;;;;;;4971378;28;20492;-70
2022/05/17 12:06:44;;;;;;;3.93;1.80;;;25.80;99.90;;;;;;4970496;28;21190;-69
2022/05/17 12:09:26;;;;;;;3.17;2.40;;;25.60;99.90;;;;;;4971297;28;20457;-69
2022/05/17 12:12:06;;;;;;;5.20;2.23;;;25.60;99.90;;;;;;4969726;28;20480;-69
2022/05/17 12:14:40;;;;;;;5.13;2.13;;;25.50;99.90;;;;;;4969296;28;20460;-70
2022/05/17 12:17:14;;;;;;;7.60;2.90;;;25.50;99.90;;;;;;4969298;28;20491;-69
2022/05/17 12:19:49;;;;;;;4.10;2.03;;;25.70;99.90;;;;;;4970672;28;20805;-73
2022/05/17 12:22:21;;;;;;;2.93;1.90;;;25.80;99.90;;;;;;4972511;28;20496;-73
2022/05/17 12:24:57;;;;;;;3.87;1.93;;;25.90;99.90;;;;;;4973661;28;20664;-79
2022/05/17 12:27:26;;;;;;;5.83;2.30;;;26.00;99.90;;;;;;4976827;28;20485;-79
2022/05/17 12:32:46;;;;;;;2.73;2.03;;;26.00;99.90;;;;;;4976910;28;20456;-79
2022/05/17 12:35:13;;;;;;;4.83;1.97;;;26.10;99.90;;;;;;4981081;28;20546;-79
2022/05/17 12:37:43;;;;;;;9.60;3.30;;;26.10;99.90;;;;;;4972083;28;20495;-76
2022/05/17 12:43:07;;;;;;;4.00;1.90;;;26.40;99.90;;;;;;4969789;28;20506;-75
2022/05/17 12:45:39;;;;;;;3.30;2.10;;;26.60;99.90;;;;;;4962259;28;20503;-75
2022/05/17 12:48:15;;;;;;;4.43;2.17;;;26.70;99.90;;;;;;4952517;28;20457;-75
2022/05/17 12:50:46;;;;;;;4.97;2.10;;;26.80;99.90;;;;;;4968900;28;20568;-72
2022/05/17 12:53:20;;;;;;;6.53;2.30;;;26.80;99.90;;;;;;4961037;28;20472;-69
2022/05/17 12:56:04;;;;;;;5.10;2.20;;;26.70;99.90;;;;;;4948948;29;20489;-72
2022/05/17 12:58:32;;;;;;;3.30;2.03;;;26.70;99.90;;;;;;4949913;29;20450;-72
2022/05/17 13:01:01;;;;;;;3.83;2.23;;;26.70;99.90;;;;;;4949385;29;20496;-72
2022/05/17 13:03:30;;;;;;;4.30;2.10;;;26.80;99.90;;;;;;4949414;29;20503;-71
2022/05/17 13:06:01;;;;;;;6.10;2.17;;;26.80;99.90;;;;;;4948776;29;20556;-72
2022/05/17 13:08:30;;;;;;;3.77;1.67;;;26.90;99.90;;;;;;4950399;28;20483;-72
2022/05/17 13:11:03;;;;;;;2.80;1.80;;;27.00;99.90;;;;;;4951946;29;20568;-75
2022/05/17 13:13:32;;;;;;;3.10;2.07;;;27.10;99.90;;;;;;4951016;29;20465;-69
2022/05/17 13:16:04;;;;;;;4.43;2.20;;;27.00;99.90;;;;;;4949117;29;20465;-68
2022/05/17 13:18:39;;;;;;;5.10;2.03;;;27.00;99.90;;;;;;4949329;29;20954;-68
2022/05/17 13:21:13;;;;;;;4.50;2.40;;;26.90;99.90;;;;;;4949692;29;20496;-68
2022/05/17 13:23:40;;;;;;;3.20;1.90;;;26.90;99.90;;;;;;4949230;29;21042;-68
2022/05/17 13:26:07;;;;;;;3.63;2.00;;;26.80;99.90;;;;;;4948867;29;20465;-68
2022/05/17 13:28:36;;;;;;;3.20;2.10;;;26.80;99.90;;;;;;4949074;29;20462;-68
2022/05/17 13:31:14;;;;;;;3.37;1.57;;;26.70;99.90;;;;;;4948782;29;20564;-68
2022/05/17 13:33:52;;;;;;;3.50;1.70;;;26.70;99.90;;;;;;4949182;29;20968;-68
2022/05/17 13:36:32;;;;;;;3.20;1.70;;;26.80;99.90;;;;;;4948650;29;20462;-67
2022/05/17 13:38:59;;;;;;;2.97;1.83;;;26.90;99.90;;;;;;4949071;29;20571;-68
2022/05/17 13:41:32;;;;;;;2.50;2.00;;;26.90;99.90;;;;;;4949295;29;20530;-68
2022/05/17 13:44:00;;;;;;;4.20;2.00;;;26.80;99.90;;;;;;4948454;29;20507;-68
2022/05/17 13:46:35;;;;;;;3.53;1.97;;;26.70;99.90;;;;;;4949092;29;20469;-68
2022/05/17 13:49:13;;;;;;;5.70;1.77;;;26.90;99.90;;;;;;4948952;29;20996;-67
2022/05/17 13:51:53;;;;;;;2.40;1.63;;;26.90;99.90;;;;;;4948680;29;20540;-68
2022/05/17 13:54:28;;;;;;;4.10;2.00;;;27.00;99.90;;;;;;4946797;29;20490;-68
2022/05/17 13:57:01;;;;;;;2.03;1.50;;;27.10;99.90;;;;;;4950828;29;20481;-71
2022/05/17 13:59:30;;;;;;;5.73;2.73;;;27.10;99.90;;;;;;4949392;29;20456;-79
2022/05/17 14:02:00;;;;;;;2.33;1.73;;;27.20;99.90;;;;;;4949772;29;20488;-77
2022/05/17 14:04:38;;;;;;;3.80;1.60;;;27.30;99.90;;;;;;4948353;29;20501;-78
2022/05/17 14:07:21;;;;;;;2.90;1.97;;;27.40;99.90;;;;;;4950062;29;20512;-78
2022/05/17 14:13:21;;;;;;;3.60;1.70;;;27.30;99.90;;;;;;4949624;29;20826;-77
2022/05/17 14:15:48;;;;;;;4.63;1.77;;;27.40;99.90;;;;;;4948630;29;20454;-77
2022/05/17 14:18:24;;;;;;;3.43;1.50;;;27.30;99.90;;;;;;4948191;29;20544;-77
2022/05/17 14:20:52;;;;;;;3.57;1.90;;;27.20;99.90;;;;;;4949450;28;21076;-78
2022/05/17 14:23:19;;;;;;;4.77;1.57;;;27.30;99.90;;;;;;4950921;29;20508;-79
2022/05/17 14:25:46;;;;;;;1.43;1.30;;;27.40;99.90;;;;;;4952628;29;21033;-78
2022/05/17 14:28:13;;;;;;;2.77;1.70;;;27.40;99.90;;;;;;4955950;29;20465;-78
2022/05/17 14:30:41;;;;;;;3.83;2.00;;;27.40;99.90;;;;;;4957189;28;20875;-77
2022/05/17 14:33:09;;;;;;;3.33;1.70;;;27.40;99.90;;;;;;4970078;28;20456;-78
2022/05/17 14:35:38;;;;;;;3.97;2.10;;;27.40;99.90;;;;;;4971666;28;20507;-78
2022/05/17 14:38:06;;;;;;;5.10;1.63;;;27.40;99.90;;;;;;4972187;28;20870;-78
2022/05/17 14:40:33;;;;;;;2.77;1.60;;;27.40;99.90;;;;;;4969718;28;20472;-79
2022/05/17 14:43:01;;;;;;;12.60;4.00;;;27.50;99.90;;;;;;4971494;28;20527;-79
2022/05/17 14:45:28;;;;;;;3.10;1.77;;;27.60;99.90;;;;;;4970600;28;20460;-79
2022/05/17 14:47:56;;;;;;;4.30;1.80;;;27.70;99.90;;;;;;4971042;28;20455;-78
2022/05/17 14:50:24;;;;;;;17.53;4.90;;;27.60;99.90;;;;;;4971755;28;20465;-79
2022/05/17 14:52:56;;;;;;;10.10;2.80;;;27.60;99.90;;;;;;4971410;28;20456;-79
2022/05/17 14:55:25;;;;;;;7.20;3.10;;;27.60;99.90;;;;;;4970817;28;20515;-79
2022/05/17 14:57:52;;;;;;;4.53;1.40;;;27.60;99.90;;;;;;4971080;28;20456;-79
2022/05/17 15:00:21;;;;;;;3.80;1.77;;;27.60;99.90;;;;;;4970222;28;20470;-77
2022/05/17 15:02:53;;;;;;;2.60;1.60;;;27.70;99.90;;;;;;4969792;28;20617;-78
2022/05/17 15:05:20;;;;;;;2.77;1.77;;;27.60;99.90;;;;;;4970441;28;20516;-78
2022/05/17 15:07:50;;;;;;;3.10;1.80;;;27.60;99.90;;;;;;4971004;28;20575;-78
2022/05/17 15:10:20;;;;;;;1.33;1.23;;;27.50;99.90;;;;;;4970590;28;20867;-78
2022/05/17 15:12:48;;;;;;;3.53;1.40;;;27.40;99.90;;;;;;4971306;28;20705;-78
2022/05/17 15:15:16;;;;;;;3.20;1.57;;;27.40;99.90;;;;;;4969679;28;20461;-78
2022/05/17 15:17:49;;;;;;;3.53;1.83;;;27.30;99.90;;;;;;4971071;28;20464;-78
2022/05/17 15:20:17;;;;;;;2.50;1.50;;;27.30;99.90;;;;;;4970948;28;20540;-79
2022/05/17 15:22:45;;;;;;;1.70;1.30;;;27.20;99.90;;;;;;4970978;28;20460;-79
2022/05/17 15:25:15;;;;;;;3.83;1.40;;;27.20;99.90;;;;;;4970670;28;20546;-79
2022/05/17 15:27:44;;;;;;;3.60;1.57;;;27.10;99.90;;;;;;4970864;28;20467;-79
2022/05/17 15:30:12;;;;;;;2.60;1.50;;;27.10;99.90;;;;;;4971133;28;20453;-79
2022/05/17 15:32:40;;;;;;;4.23;1.50;;;27.00;99.90;;;;;;4974984;28;20459;-79
2022/05/17 15:35:09;;;;;;;4.07;1.60;;;26.90;99.90;;;;;;4975010;28;20448;-80
2022/05/17 15:37:36;;;;;;;1.40;1.30;;;26.90;99.90;;;;;;4973759;28;20460;-78
2022/05/17 15:40:04;;;;;;;1.30;1.20;;;26.90;99.90;;;;;;4972173;28;20768;-77
2022/05/17 15:42:31;;;;;;;4.17;1.60;;;26.80;99.90;;;;;;4971107;28;20995;-78
2022/05/17 15:44:59;;;;;;;3.57;1.50;;;26.70;99.90;;;;;;4971845;28;20506;-78
2022/05/17 15:53:19;;;;;;;2.27;1.50;;;26.50;99.90;;;;;;4974309;28;20483;-77
2022/05/17 15:55:47;;;;;;;3.27;1.37;;;26.40;99.90;;;;;;4972429;28;20453;-78
2022/05/17 15:58:14;;;;;;;5.83;1.70;;;26.40;99.90;;;;;;4972896;28;20464;-78
2022/05/17 16:00:42;;;;;;;2.43;1.70;;;26.30;99.90;;;;;;4972688;28;20524;-78
2022/05/17 16:03:10;;;;;;;1.50;1.40;;;26.30;99.90;;;;;;4972105;28;20502;-77
2022/05/17 16:05:38;;;;;;;2.57;1.63;;;26.20;99.90;;;;;;4972216;28;20623;-78
2022/05/17 16:08:09;;;;;;;8.13;1.90;;;26.20;99.90;;;;;;4972862;28;20540;-78
2022/05/17 16:10:38;;;;;;;5.40;2.20;;;26.10;99.90;;;;;;4973075;28;20492;-78
2022/05/17 16:13:09;;;;;;;5.93;2.50;;;26.10;99.90;;;;;;4972486;28;20459;-78
2022/05/17 16:15:39;;;;;;;2.83;1.83;;;26.10;99.90;;;;;;4971433;28;20810;-78
2022/05/17 16:18:10;;;;;;;15.63;3.70;;;26.00;99.90;;;;;;4972104;28;20813;-76
2022/05/17 16:20:38;;;;;;;12.03;3.70;;;26.00;99.90;;;;;;4972691;28;20595;-80
2022/05/17 16:23:06;;;;;;;4.57;1.73;;;25.90;99.90;;;;;;4971434;28;20460;-77
2022/05/17 16:25:34;;;;;;;3.33;2.13;;;25.90;99.90;;;;;;4971882;28;20500;-78
2022/05/17 16:28:01;;;;;;;1.90;1.70;;;25.80;99.90;;;;;;4974657;28;20462;-78
2022/05/17 16:30:29;;;;;;;1.70;1.60;;;25.70;99.90;;;;;;4976458;28;20487;-78
2022/05/17 16:32:57;;;;;;;3.90;1.90;;;25.70;99.90;;;;;;4976586;28;20463;-79
2022/05/17 16:35:28;;;;;;;3.10;1.70;;;25.60;99.90;;;;;;4976327;28;20458;-78
2022/05/17 16:37:55;;;;;;;3.00;1.90;;;25.60;99.90;;;;;;4975637;28;20495;-78
2022/05/17 16:40:23;;;;;;;4.03;1.63;;;25.60;99.90;;;;;;4975091;28;21134;-78
2022/05/17 16:42:50;;;;;;;2.90;1.90;;;25.50;99.90;;;;;;4973645;28;20460;-78
2022/05/17 16:45:17;;;;;;;3.20;1.83;;;25.50;99.90;;;;;;4973769;28;21051;-77
2022/05/17 16:47:44;;;;;;;3.80;2.17;;;25.50;99.90;;;;;;4973558;28;20464;-78
2022/05/17 16:50:22;;;;;;;3.40;1.90;;;25.40;99.90;;;;;;4973753;28;20547;-78
2022/05/17 16:52:51;;;;;;;3.40;1.90;;;25.40;99.90;;;;;;4973476;28;20539;-78
2022/05/17 16:55:19;;;;;;;3.00;1.70;;;25.30;99.90;;;;;;4972757;28;20464;-78
2022/05/17 16:57:47;;;;;;;7.13;2.27;;;25.30;99.90;;;;;;4975025;28;20538;-79
2022/05/17 17:00:15;;;;;;;3.57;1.93;;;25.20;99.90;;;;;;4976166;28;20464;-78
2022/05/17 17:02:42;;;;;;;3.63;1.83;;;25.20;99.90;;;;;;4975456;28;20464;-79
2022/05/17 17:05:14;;;;;;;3.10;2.17;;;25.20;99.90;;;;;;4975756;28;20520;-78
2022/05/17 17:07:41;;;;;;;2.70;2.13;;;25.10;99.90;;;;;;4975830;28;21250;-79
2022/05/17 17:10:09;;;;;;;4.43;2.10;;;25.00;99.90;;;;;;4975101;28;20491;-79
2022/05/17 17:12:36;;;;;;;6.07;2.00;;;24.90;99.90;;;;;;4975864;28;20592;-78
2022/05/17 17:15:04;;;;;;;5.10;1.90;;;24.90;99.90;;;;;;4974168;28;20491;-79
2022/05/17 17:17:33;;;;;;;4.67;2.20;;;24.90;99.90;;;;;;4973192;28;20846;-79
2022/05/17 17:20:00;;;;;;;10.00;2.40;;;24.90;99.90;;;;;;4975426;28;20464;-78
2022/05/17 17:22:26;;;;;;;5.50;2.10;;;24.90;99.90;;;;;;4974213;28;20554;-78
2022/05/17 17:24:53;;;;;;;2.40;2.10;;;24.80;99.90;;;;;;4973753;28;20619;-79
2022/05/17 17:27:23;;;;;;;6.20;2.00;;;24.80;99.90;;;;;;4975445;28;20551;-79
2022/05/17 17:29:52;;;;;;;5.00;2.60;;;24.80;99.90;;;;;;4984960;28;20469;-78